Time;durP1;ratioP1;P1;durP2;ratioP2;P2;SDS_P1;SDS_P2;PMS_P1;PMS_P2;Temp;Humidity;BMP_temperature;BMP_pressure;BME280_temperature;BME280_humidity;BME280_pressure;Samples;Min_cycle;Max_cycle;Signal;HPM_P1;HPM_P2
2023/12/11 00:01:11;;;;;;;0.30;0.30;;;;;;;7.46;100.00;98012.88;5094619;28;20051;-59
2023/12/11 00:03:38;;;;;;;0.30;0.30;;;;;;;7.38;100.00;98015.97;5095279;28;20045;-60
2023/12/11 00:06:09;;;;;;;0.30;0.30;;;;;;;7.35;100.00;98009.28;5091060;27;20128;-59
2023/12/11 00:08:36;;;;;;;0.30;0.30;;;;;;;7.19;100.00;98014.69;5083287;28;20067;-59
2023/12/11 00:11:05;;;;;;;0.50;0.50;;;;;;;7.44;100.00;98019.50;5093291;28;20051;-58
2023/12/11 00:13:32;;;;;;;0.30;0.30;;;;;;;7.44;100.00;98014.97;5101313;28;20542;-58
2023/12/11 00:15:59;;;;;;;0.30;0.30;;;;;;;7.45;100.00;98024.56;5096288;27;20040;-59
2023/12/11 00:18:27;;;;;;;0.30;0.30;;;;;;;7.32;100.00;98031.13;5086396;28;20043;-59
2023/12/11 00:20:54;;;;;;;0.35;0.35;;;;;;;7.29;100.00;98028.16;5091679;28;20154;-59
2023/12/11 00:23:21;;;;;;;0.40;0.40;;;;;;;7.30;100.00;98035.88;5091288;28;20505;-59
2023/12/11 00:25:48;;;;;;;0.25;0.25;;;;;;;7.30;100.00;98029.75;5090287;28;20052;-59
2023/12/11 00:28:17;;;;;;;0.30;0.30;;;;;;;7.27;100.00;98043.59;5091913;28;20076;-59
2023/12/11 00:30:44;;;;;;;0.40;0.40;;;;;;;7.33;100.00;98034.59;5094703;27;20059;-59
2023/12/11 00:33:11;;;;;;;0.30;0.30;;;;;;;7.42;100.00;98037.63;5096687;28;20036;-59
2023/12/11 00:35:38;;;;;;;0.20;0.20;;;;;;;7.37;100.00;98027.69;5094929;28;20048;-59
2023/12/11 00:38:05;;;;;;;0.30;0.30;;;;;;;7.54;100.00;98033.75;5099498;27;20043;-59
2023/12/11 00:40:32;;;;;;;0.30;0.30;;;;;;;7.57;100.00;98024.44;5095007;28;20066;-59
2023/12/11 00:42:59;;;;;;;0.30;0.30;;;;;;;7.60;100.00;98029.25;5092377;28;20572;-59
2023/12/11 00:45:30;;;;;;;0.20;0.20;;;;;;;7.61;100.00;98032.72;5093407;28;20120;-59
2023/12/11 00:47:57;;;;;;;0.30;0.30;;;;;;;7.60;100.00;98039.94;5099642;27;20040;-59
2023/12/11 00:50:24;;;;;;;0.30;0.30;;;;;;;7.62;100.00;98031.69;5095272;28;20560;-59
2023/12/11 00:52:51;;;;;;;0.30;0.30;;;;;;;7.55;100.00;98034.53;5098170;28;20054;-59
2023/12/11 00:55:18;;;;;;;0.30;0.30;;;;;;;7.46;100.00;98034.22;5097087;28;20462;-59
2023/12/11 00:57:49;;;;;;;0.40;0.40;;;;;;;7.32;100.00;98022.31;5099645;27;20036;-59
2023/12/11 01:00:17;;;;;;;0.30;0.30;;;;;;;7.30;100.00;98021.75;5093591;28;20048;-59
2023/12/11 01:02:45;;;;;;;0.30;0.30;;;;;;;7.31;100.00;98021.53;5098240;28;20074;-59
2023/12/11 01:05:12;;;;;;;0.35;0.35;;;;;;;7.21;100.00;98029.38;5094863;28;20530;-59
2023/12/11 01:07:39;;;;;;;0.40;0.40;;;;;;;7.21;100.00;98021.38;5093804;28;20116;-59
2023/12/11 01:10:08;;;;;;;0.20;0.20;;;;;;;7.22;100.00;98016.88;5092727;28;20055;-59
2023/12/11 01:12:35;;;;;;;0.32;0.32;;;;;;;7.29;100.00;98025.50;5098175;28;20051;-59
2023/12/11 01:15:02;;;;;;;0.20;0.20;;;;;;;7.26;100.00;98028.63;5097088;28;20484;-59
2023/12/11 01:17:29;;;;;;;0.40;0.40;;;;;;;7.24;100.00;98028.91;5095979;28;20581;-59
2023/12/11 01:19:56;;;;;;;0.47;0.47;;;;;;;7.24;100.00;98020.09;5092084;27;20092;-59
2023/12/11 01:22:23;;;;;;;0.40;0.40;;;;;;;7.24;100.00;98014.75;5104253;27;20047;-59
2023/12/11 01:24:51;;;;;;;0.30;0.30;;;;;;;7.24;100.00;98025.41;5098026;28;20040;-59
2023/12/11 01:27:18;;;;;;;0.40;0.40;;;;;;;7.27;100.00;98019.59;5096406;28;20544;-59
2023/12/11 01:29:45;;;;;;;0.40;0.40;;;;;;;7.26;100.00;98018.81;5096499;28;20039;-59
2023/12/11 01:32:12;;;;;;;0.40;0.40;;;;;;;7.22;100.00;98017.69;5097099;28;20040;-58
2023/12/11 01:34:39;;;;;;;0.28;0.28;;;;;;;7.27;100.00;98008.94;5092010;28;20054;-59
2023/12/11 01:37:07;;;;;;;0.38;0.38;;;;;;;7.26;100.00;98025.97;5101209;28;20063;-59
2023/12/11 01:39:34;;;;;;;0.40;0.40;;;;;;;7.25;100.00;98027.03;5090989;28;20507;-59
2023/12/11 01:42:01;;;;;;;0.28;0.28;;;;;;;7.23;100.00;98029.16;5089517;28;20040;-59
2023/12/11 01:44:29;;;;;;;0.20;0.20;;;;;;;7.21;100.00;98044.56;5100848;28;20051;-59
2023/12/11 01:46:56;;;;;;;0.38;0.38;;;;;;;7.11;100.00;98053.25;5098103;27;20097;-59
2023/12/11 01:49:26;;;;;;;0.30;0.30;;;;;;;7.10;100.00;98060.44;5092443;27;20043;-59
2023/12/11 01:51:53;;;;;;;0.40;0.40;;;;;;;7.32;100.00;98060.44;5090430;28;20498;-59
2023/12/11 01:54:23;;;;;;;0.30;0.30;;;;;;;7.30;100.00;98056.41;5095523;28;20039;-59
2023/12/11 01:56:50;;;;;;;0.30;0.30;;;;;;;7.33;100.00;98053.25;5098169;28;20429;-59
2023/12/11 01:59:20;;;;;;;0.35;0.35;;;;;;;7.45;100.00;98053.91;5093148;28;20047;-59
2023/12/11 02:01:48;;;;;;;0.30;0.30;;;;;;;7.49;100.00;98060.34;5108359;27;20603;-59
2023/12/11 02:04:16;;;;;;;0.20;0.20;;;;;;;7.53;100.00;98050.78;5096215;28;20059;-59
2023/12/11 02:06:43;;;;;;;0.30;0.30;;;;;;;7.57;100.00;98056.44;5091799;28;20047;-59
2023/12/11 02:09:10;;;;;;;0.30;0.30;;;;;;;7.62;100.00;98061.03;5087678;27;20446;-59
2023/12/11 02:11:39;;;;;;;0.40;0.40;;;;;;;7.66;100.00;98054.94;5095099;28;20086;-60
2023/12/11 02:14:06;;;;;;;0.30;0.30;;;;;;;7.59;100.00;98058.84;5093984;28;20047;-59
2023/12/11 02:16:33;;;;;;;0.25;0.25;;;;;;;7.67;100.00;98053.88;5097857;28;21794;-59
2023/12/11 02:19:00;;;;;;;0.40;0.40;;;;;;;7.63;100.00;98051.94;5090787;28;20067;-59
2023/12/11 02:21:27;;;;;;;0.20;0.20;;;;;;;7.66;100.00;98046.09;5089583;28;20506;-60
2023/12/11 02:23:57;;;;;;;0.50;0.50;;;;;;;7.65;100.00;98055.19;5091863;28;20079;-58
2023/12/11 02:26:25;;;;;;;0.33;0.33;;;;;;;7.64;100.00;98053.53;5116221;27;20507;-58
2023/12/11 02:28:53;;;;;;;0.30;0.30;;;;;;;7.71;100.00;98040.81;5095655;27;20797;-60
2023/12/11 02:31:21;;;;;;;0.20;0.20;;;;;;;7.71;100.00;98040.81;5092987;28;20193;-59
2023/12/11 02:33:48;;;;;;;0.30;0.30;;;;;;;7.74;100.00;98035.81;5093707;28;20119;-60
2023/12/11 02:36:17;;;;;;;0.30;0.30;;;;;;;7.69;100.00;98033.09;5091989;27;20051;-59
2023/12/11 02:38:44;;;;;;;0.30;0.30;;;;;;;7.62;100.00;98032.47;5096247;28;20043;-60
2023/12/11 02:41:11;;;;;;;0.20;0.20;;;;;;;7.59;100.00;98032.16;5100682;27;20046;-57
2023/12/11 02:43:39;;;;;;;0.22;0.22;;;;;;;7.62;100.00;98029.03;5091637;28;20048;-57
2023/12/11 02:46:07;;;;;;;0.30;0.30;;;;;;;7.63;100.00;98027.94;5091155;28;20050;-58
2023/12/11 02:48:34;;;;;;;0.35;0.35;;;;;;;7.52;100.00;98027.84;5095859;28;20048;-60
2023/12/11 02:51:01;;;;;;;0.30;0.30;;;;;;;7.51;100.00;98031.59;5089356;28;20048;-59
2023/12/11 02:53:28;;;;;;;0.40;0.40;;;;;;;7.45;100.00;98029.91;5091917;28;20816;-58
2023/12/11 02:55:55;;;;;;;0.30;0.30;;;;;;;7.44;100.00;98024.81;5098888;28;20051;-58
2023/12/11 02:58:22;;;;;;;0.30;0.30;;;;;;;7.48;100.00;98026.75;5096833;28;20150;-59
2023/12/11 03:00:50;;;;;;;0.20;0.20;;;;;;;7.46;100.00;98006.72;5092013;27;20843;-59
2023/12/11 03:03:16;;;;;;;0.40;0.40;;;;;;;7.42;100.00;98014.44;5093689;27;20055;-59
2023/12/11 03:05:44;;;;;;;0.30;0.30;;;;;;;7.44;100.00;98014.97;5099162;28;20039;-59
2023/12/11 03:08:11;;;;;;;0.30;0.30;;;;;;;7.44;100.00;98017.66;5094350;28;20457;-60
2023/12/11 03:10:38;;;;;;;0.30;0.30;;;;;;;7.52;100.00;98003.84;5094632;28;20047;-60
2023/12/11 03:13:05;;;;;;;0.25;0.25;;;;;;;7.51;100.00;97999.59;5095812;27;20036;-59
2023/12/11 03:15:32;;;;;;;0.40;0.40;;;;;;;7.55;100.00;97995.34;5089044;28;20047;-59
2023/12/11 03:18:01;;;;;;;0.30;0.30;;;;;;;7.57;100.00;97987.91;5092662;28;20093;-59
2023/12/11 03:20:29;;;;;;;0.30;0.30;;;;;;;7.55;100.00;97982.03;5089456;27;20052;-59
2023/12/11 03:22:56;;;;;;;0.30;0.30;;;;;;;7.61;100.00;97979.41;5100708;27;20047;-59
2023/12/11 03:25:24;;;;;;;0.30;0.30;;;;;;;7.60;100.00;97980.47;5087452;28;20460;-60
2023/12/11 03:27:51;;;;;;;0.30;0.30;;;;;;;7.55;100.00;97976.69;5096131;27;20047;-60
2023/12/11 03:30:18;;;;;;;0.40;0.40;;;;;;;7.54;100.00;97976.94;5094289;28;20474;-60
2023/12/11 03:32:45;;;;;;;0.30;0.30;;;;;;;7.48;100.00;97972.63;5092082;28;20071;-59
2023/12/11 03:35:13;;;;;;;0.40;0.40;;;;;;;7.48;100.00;97975.28;5095283;27;20040;-59
2023/12/11 03:37:40;;;;;;;0.20;0.20;;;;;;;7.35;100.00;97985.28;5087736;27;20056;-59
2023/12/11 03:40:08;;;;;;;0.40;0.40;;;;;;;7.31;100.00;97983.38;5089908;28;20457;-59
2023/12/11 03:42:35;;;;;;;0.40;0.40;;;;;;;7.26;100.00;97975.34;5091184;28;20169;-60
2023/12/11 03:45:03;;;;;;;0.40;0.40;;;;;;;7.28;100.00;97979.34;5094066;27;20387;-60
2023/12/11 03:47:30;;;;;;;0.40;0.40;;;;;;;7.29;100.00;97985.50;5092763;27;20513;-60
2023/12/11 03:49:57;;;;;;;0.30;0.30;;;;;;;7.26;100.00;97988.66;5091191;27;20049;-59
2023/12/11 03:52:26;;;;;;;0.38;0.38;;;;;;;7.22;100.00;97992.91;5095853;28;20304;-60
2023/12/11 03:54:53;;;;;;;0.30;0.30;;;;;;;7.20;100.00;97976.34;5088845;28;20047;-59
2023/12/11 03:57:20;;;;;;;0.40;0.40;;;;;;;7.11;100.00;97974.16;5093639;28;20377;-59
2023/12/11 03:59:50;;;;;;;0.30;0.30;;;;;;;7.07;100.00;97973.03;5084230;28;20044;-60
2023/12/11 04:02:17;;;;;;;0.40;0.40;;;;;;;7.16;100.00;97983.22;5085184;28;20100;-59
2023/12/11 04:04:44;;;;;;;0.30;0.30;;;;;;;7.17;100.00;97983.00;5091061;28;20043;-59
2023/12/11 04:07:11;;;;;;;0.40;0.40;;;;;;;7.09;100.00;97980.78;5094675;27;20044;-59
2023/12/11 04:09:40;;;;;;;0.30;0.30;;;;;;;7.06;100.00;97970.59;5108516;27;20133;-60
2023/12/11 04:12:07;;;;;;;0.30;0.30;;;;;;;7.02;100.00;97964.19;5099323;27;20040;-59
2023/12/11 04:14:34;;;;;;;0.40;0.40;;;;;;;7.00;100.00;97967.09;5093738;27;20517;-59
2023/12/11 04:17:02;;;;;;;0.40;0.40;;;;;;;7.00;100.00;97977.72;5094154;28;20133;-59
2023/12/11 04:19:29;;;;;;;0.30;0.30;;;;;;;6.94;100.00;97978.75;5099501;28;20083;-59
2023/12/11 04:21:56;;;;;;;0.43;0.43;;;;;;;7.00;100.00;97980.41;5089416;28;20121;-58
2023/12/11 04:24:23;;;;;;;0.30;0.30;;;;;;;6.96;100.00;97979.28;5093693;28;20325;-59
2023/12/11 04:26:51;;;;;;;0.30;0.30;;;;;;;6.99;100.00;97986.78;5104088;28;20215;-59
2023/12/11 04:29:18;;;;;;;0.30;0.30;;;;;;;6.98;100.00;97990.50;5082929;28;20249;-59
2023/12/11 04:31:45;;;;;;;0.40;0.40;;;;;;;7.06;100.00;97990.06;5089302;28;20079;-59
2023/12/11 04:34:12;;;;;;;0.30;0.30;;;;;;;7.05;100.00;97983.13;5092033;28;20402;-59
2023/12/11 04:36:42;;;;;;;0.20;0.20;;;;;;;7.08;100.00;97974.63;5091461;28;20075;-59
2023/12/11 04:39:09;;;;;;;0.40;0.40;;;;;;;7.11;100.00;97989.31;5093237;28;20501;-59
2023/12/11 04:41:36;;;;;;;0.30;0.30;;;;;;;7.09;100.00;97980.78;5089985;28;20044;-59
2023/12/11 04:44:05;;;;;;;0.30;0.30;;;;;;;7.09;100.00;97978.91;5088116;28;20067;-59
2023/12/11 04:46:33;;;;;;;0.40;0.40;;;;;;;7.11;100.00;97973.31;5091297;28;20044;-59
2023/12/11 04:49:00;;;;;;;0.30;0.30;;;;;;;7.15;100.00;97978.97;5086773;28;20555;-59
2023/12/11 04:51:27;;;;;;;0.30;0.30;;;;;;;7.11;100.00;97978.66;5094357;28;20399;-59
2023/12/11 04:53:54;;;;;;;0.40;0.40;;;;;;;7.07;100.00;97978.34;5095278;28;21061;-59
2023/12/11 04:56:24;;;;;;;0.30;0.30;;;;;;;7.02;100.00;97964.97;5098563;28;20130;-59
2023/12/11 04:58:51;;;;;;;0.30;0.30;;;;;;;7.12;100.00;97964.28;5089452;28;20047;-59
2023/12/11 05:01:21;;;;;;;0.38;0.38;;;;;;;7.15;100.00;97947.00;5092732;28;20185;-59
2023/12/11 05:03:48;;;;;;;;;;;;;;;7.15;100.00;97947.78;5087918;28;20044;-59
2023/12/11 05:06:15;;;;;;;0.30;0.30;;;;;;;7.12;100.00;97953.63;5094606;28;19932;-59
2023/12/11 05:08:42;;;;;;;0.30;0.30;;;;;;;7.16;100.00;97929.94;5091518;28;20040;-59
2023/12/11 05:11:09;;;;;;;0.30;0.30;;;;;;;7.19;100.00;97932.09;5089155;28;20368;-59
2023/12/11 05:13:36;;;;;;;0.30;0.30;;;;;;;7.22;100.00;97934.28;5089387;28;20050;-59
2023/12/11 05:16:04;;;;;;;0.38;0.38;;;;;;;7.12;100.00;97933.09;5097474;28;20047;-59
2023/12/11 05:18:32;;;;;;;0.30;0.30;;;;;;;7.04;100.00;97925.56;5093700;28;20393;-59
2023/12/11 05:21:01;;;;;;;0.43;0.43;;;;;;;7.00;100.00;97923.66;5094927;28;20051;-59
2023/12/11 05:23:28;;;;;;;0.40;0.40;;;;;;;7.01;100.00;97910.06;5095295;28;20040;-59
2023/12/11 05:25:58;;;;;;;0.40;0.40;;;;;;;7.01;100.00;97926.06;5092480;28;20134;-59
2023/12/11 05:28:25;;;;;;;0.30;0.30;;;;;;;6.99;100.00;97920.19;5093482;28;20268;-59
2023/12/11 05:30:52;;;;;;;0.30;0.30;;;;;;;6.94;100.00;97914.81;5091406;28;20112;-59
2023/12/11 05:33:19;;;;;;;0.20;0.20;;;;;;;6.96;100.00;97911.88;5094923;28;20497;-59
2023/12/11 05:35:48;;;;;;;0.30;0.30;;;;;;;6.93;100.00;97910.53;5097689;28;20043;-59
2023/12/11 05:38:15;;;;;;;0.28;0.28;;;;;;;6.96;100.00;97912.69;5092662;28;20193;-58
2023/12/11 05:40:42;;;;;;;0.40;0.40;;;;;;;7.02;100.00;97910.91;5092495;27;20503;-57
2023/12/11 05:43:09;;;;;;;0.20;0.20;;;;;;;6.99;100.00;97925.53;5096822;27;20610;-58
2023/12/11 05:45:38;;;;;;;0.35;0.35;;;;;;;7.05;100.00;97921.84;5095968;28;20086;-60
2023/12/11 05:48:07;;;;;;;0.20;0.20;;;;;;;7.00;100.00;97928.97;5091448;28;20635;-58
2023/12/11 05:50:34;;;;;;;0.20;0.20;;;;;;;7.04;100.00;97922.91;5105213;27;20552;-59
2023/12/11 05:53:05;;;;;;;0.30;0.30;;;;;;;7.00;100.00;97908.47;5092805;27;20052;-58
2023/12/11 05:55:32;;;;;;;0.30;0.30;;;;;;;7.07;100.00;97909.06;5099095;27;20052;-58
2023/12/11 05:58:00;;;;;;;0.22;0.22;;;;;;;7.18;100.00;97915.31;5095496;28;20047;-58
2023/12/11 06:00:27;;;;;;;0.40;0.40;;;;;;;7.44;100.00;97908.34;5101714;28;20335;-59
2023/12/11 06:02:54;;;;;;;0.30;0.30;;;;;;;7.38;100.00;97909.34;5088092;27;20041;-59
2023/12/11 06:05:21;;;;;;;0.40;0.40;;;;;;;7.38;100.00;97901.34;5097179;28;20581;-60
2023/12/11 06:07:49;;;;;;;0.30;0.30;;;;;;;7.38;100.00;97904.03;5101780;28;20482;-60
2023/12/11 06:10:17;;;;;;;0.30;0.30;;;;;;;7.37;100.00;97890.97;5099308;28;20134;-58
2023/12/11 06:12:46;;;;;;;0.30;0.30;;;;;;;7.35;100.00;97900.00;5092276;28;20040;-60
2023/12/11 06:15:13;;;;;;;0.30;0.30;;;;;;;7.32;100.00;97887.19;5095698;27;20046;-60
2023/12/11 06:17:40;;;;;;;0.30;0.30;;;;;;;7.44;100.00;97886.19;5099804;28;20075;-59
2023/12/11 06:20:09;;;;;;;0.30;0.30;;;;;;;7.34;100.00;97876.28;5095308;27;20123;-59
2023/12/11 06:22:36;;;;;;;0.30;0.30;;;;;;;7.54;100.00;97871.09;5097802;27;20398;-59
2023/12/11 06:25:04;;;;;;;0.30;0.30;;;;;;;7.54;100.00;97863.09;5091440;28;20510;-59
2023/12/11 06:27:32;;;;;;;0.30;0.30;;;;;;;7.68;100.00;97866.13;5098505;28;20135;-59
2023/12/11 06:29:59;;;;;;;0.20;0.20;;;;;;;7.66;100.00;97862.09;5087081;28;20044;-59
2023/12/11 06:32:27;;;;;;;0.40;0.40;;;;;;;7.75;100.00;97855.22;5096327;28;20495;-59
2023/12/11 06:34:54;;;;;;;0.30;0.30;;;;;;;7.82;100.00;97855.81;5094083;28;20064;-59
2023/12/11 06:37:22;;;;;;;0.40;0.40;;;;;;;7.78;100.00;97850.19;5098316;28;20036;-59
2023/12/11 06:39:50;;;;;;;0.30;0.30;;;;;;;7.95;100.00;97855.34;5095799;28;20040;-58
2023/12/11 06:42:17;;;;;;;0.20;0.20;;;;;;;8.08;100.00;97859.41;5098175;28;20043;-59
2023/12/11 06:44:45;;;;;;;0.20;0.20;;;;;;;8.16;100.00;97858.94;5098317;28;20054;-59
2023/12/11 06:47:13;;;;;;;0.30;0.30;;;;;;;8.08;100.00;97866.63;5099072;28;20130;-59
2023/12/11 06:49:42;;;;;;;0.30;0.30;;;;;;;8.10;100.00;97856.50;5099590;28;20420;-59
2023/12/11 06:52:09;;;;;;;0.25;0.25;;;;;;;7.96;100.00;97859.63;5099479;28;20110;-59
2023/12/11 06:54:36;;;;;;;0.30;0.30;;;;;;;7.79;100.00;97856.34;5094252;28;20081;-59
2023/12/11 06:57:04;;;;;;;0.40;0.40;;;;;;;7.78;100.00;97857.38;5094829;28;20519;-59
2023/12/11 06:59:31;;;;;;;0.20;0.20;;;;;;;7.78;100.00;97855.50;5097915;27;20524;-59
2023/12/11 07:02:00;;;;;;;0.30;0.30;;;;;;;7.76;100.00;97862.16;5088967;28;20741;-59
2023/12/11 07:04:27;;;;;;;0.38;0.38;;;;;;;7.98;100.00;97862.81;5092258;28;20516;-60
2023/12/11 07:06:54;;;;;;;0.30;0.30;;;;;;;7.92;100.00;97866.53;5095169;28;20039;-59
2023/12/11 07:09:21;;;;;;;0.30;0.30;;;;;;;8.12;100.00;97863.19;5085095;28;20044;-59
2023/12/11 07:11:49;;;;;;;0.30;0.30;;;;;;;8.23;100.00;97876.56;5093569;28;20075;-59
2023/12/11 07:14:16;;;;;;;0.32;0.32;;;;;;;8.27;100.00;97867.78;5092874;27;20121;-59
2023/12/11 07:16:43;;;;;;;0.20;0.20;;;;;;;8.29;100.00;97871.00;5091574;28;20490;-60
2023/12/11 07:19:11;;;;;;;0.28;0.28;;;;;;;8.31;100.00;97870.72;5092587;28;20465;-59
2023/12/11 07:21:42;;;;;;;0.30;0.30;;;;;;;8.33;100.00;97866.72;5098625;28;20039;-59
2023/12/11 07:24:09;;;;;;;0.28;0.28;;;;;;;8.39;100.00;97868.41;5095765;28;20410;-59
2023/12/11 07:26:37;;;;;;;0.20;0.20;;;;;;;8.35;100.00;97858.47;5096306;28;20036;-59
2023/12/11 07:29:07;;;;;;;0.38;0.38;;;;;;;8.27;100.00;97862.44;5099093;28;20122;-59
2023/12/11 07:31:34;;;;;;;0.30;0.30;;;;;;;8.34;100.00;97864.88;5093292;28;20540;-59
2023/12/11 07:34:01;;;;;;;0.20;0.20;;;;;;;8.34;100.00;97872.91;5090161;28;20040;-59
2023/12/11 07:36:29;;;;;;;0.30;0.30;;;;;;;8.40;100.00;97872.66;5096252;28;20283;-59
2023/12/11 07:38:57;;;;;;;0.20;0.20;;;;;;;8.35;100.00;97877.16;5090710;28;20650;-60
2023/12/11 07:41:24;;;;;;;0.20;0.20;;;;;;;8.31;100.00;97879.56;5090066;27;20795;-60
2023/12/11 07:43:51;;;;;;;0.30;0.30;;;;;;;8.45;100.00;97889.78;5093031;28;20563;-60
2023/12/11 07:46:18;;;;;;;0.30;0.30;;;;;;;8.52;100.00;97879.66;5089336;28;20468;-58
2023/12/11 07:48:45;;;;;;;0.20;0.20;;;;;;;8.48;100.00;97873.22;5086665;28;20134;-58
2023/12/11 07:51:19;;;;;;;0.25;0.25;;;;;;;8.50;100.00;97884.47;5093982;27;20055;-58
2023/12/11 07:53:47;;;;;;;0.30;0.30;;;;;;;8.52;100.00;97893.00;5090856;28;20051;-58
2023/12/11 07:56:21;;;;;;;0.30;0.30;;;;;;;8.62;100.00;97895.72;5095795;28;20166;-60
2023/12/11 07:58:48;;;;;;;0.25;0.25;;;;;;;8.72;100.00;97901.09;5085550;27;20131;-58
2023/12/11 08:01:15;;;;;;;0.30;0.30;;;;;;;8.79;100.00;97907.00;5093248;28;20627;-58
2023/12/11 08:03:42;;;;;;;0.30;0.30;;;;;;;8.76;100.00;97907.53;5092426;28;20040;-58
2023/12/11 08:06:09;;;;;;;0.20;0.20;;;;;;;8.78;100.00;97899.22;5091808;28;20040;-58
2023/12/11 08:08:40;;;;;;;0.30;0.30;;;;;;;8.76;100.00;97910.19;5096644;28;20039;-58
2023/12/11 08:11:16;;;;;;;0.20;0.20;;;;;;;8.77;100.00;97900.31;5093827;28;20482;-58
2023/12/11 08:13:44;;;;;;;0.20;0.20;;;;;;;8.83;100.00;97907.25;5082758;28;20040;-58
2023/12/11 08:16:13;;;;;;;0.20;0.20;;;;;;;8.87;100.00;97918.25;5093845;27;20043;-58
2023/12/11 08:18:41;;;;;;;0.20;0.20;;;;;;;8.94;100.00;97924.13;5093055;28;20047;-58
2023/12/11 08:21:08;;;;;;;0.30;0.30;;;;;;;8.97;100.00;97926.28;5094273;28;20727;-58
2023/12/11 08:23:35;;;;;;;0.28;0.28;;;;;;;8.92;100.00;97931.63;5099622;28;20134;-58
2023/12/11 08:26:03;;;;;;;0.30;0.30;;;;;;;8.84;100.00;97925.72;5089396;28;20043;-58
2023/12/11 08:28:31;;;;;;;0.30;0.30;;;;;;;8.85;100.00;97931.84;5094376;28;20505;-58
2023/12/11 08:30:58;;;;;;;0.30;0.30;;;;;;;8.88;100.00;97941.22;5095974;28;20052;-58
2023/12/11 08:33:26;;;;;;;0.20;0.20;;;;;;;8.95;100.00;97936.44;5086005;28;20054;-58
2023/12/11 08:35:53;;;;;;;0.28;0.28;;;;;;;8.87;100.00;97939.63;5093794;28;20055;-58
2023/12/11 08:38:22;;;;;;;0.30;0.30;;;;;;;8.96;100.00;97938.84;5096121;28;20544;-58
2023/12/11 08:40:49;;;;;;;0.30;0.30;;;;;;;8.92;100.00;97943.09;5091279;28;20039;-59
2023/12/11 08:43:16;;;;;;;0.28;0.28;;;;;;;9.01;100.00;97946.03;5089312;28;20147;-58
2023/12/11 08:45:45;;;;;;;0.20;0.20;;;;;;;8.98;100.00;97942.03;5095209;28;20171;-59
2023/12/11 08:48:12;;;;;;;0.30;0.30;;;;;;;8.91;100.00;97946.84;5085284;28;20044;-59
2023/12/11 08:50:40;;;;;;;0.20;0.20;;;;;;;8.89;100.00;97956.19;5082787;28;20553;-59
2023/12/11 08:53:07;;;;;;;0.30;0.30;;;;;;;8.85;100.00;97948.69;5098210;28;20144;-59
2023/12/11 08:55:35;;;;;;;0.22;0.22;;;;;;;8.89;100.00;97948.19;5097600;28;20048;-58
2023/12/11 08:58:02;;;;;;;0.30;0.30;;;;;;;8.91;100.00;97956.72;5080713;28;20051;-58
2023/12/11 09:00:29;;;;;;;0.32;0.32;;;;;;;8.93;100.00;97959.94;5092949;28;20087;-59
2023/12/11 09:02:58;;;;;;;0.30;0.30;;;;;;;8.95;100.00;97953.25;5099802;27;20101;-59
2023/12/11 09:05:25;;;;;;;0.10;0.10;;;;;;;8.91;100.00;97951.38;5092847;28;20389;-58
2023/12/11 09:07:52;;;;;;;0.30;0.30;;;;;;;8.96;100.00;97957.56;5095628;28;20469;-58
2023/12/11 09:10:20;;;;;;;0.30;0.30;;;;;;;9.04;100.00;97967.72;5095825;28;20052;-58
2023/12/11 09:12:47;;;;;;;0.30;0.30;;;;;;;9.04;100.00;97962.38;5096266;28;20052;-59
2023/12/11 09:15:15;;;;;;;0.30;0.30;;;;;;;9.03;100.00;97965.31;5085712;28;20489;-59
2023/12/11 09:17:42;;;;;;;0.25;0.25;;;;;;;9.21;100.00;97975.53;5097781;28;20481;-59
2023/12/11 09:20:11;;;;;;;0.30;0.30;;;;;;;9.42;100.00;97976.34;5092175;28;20039;-59
2023/12/11 09:22:39;;;;;;;0.20;0.20;;;;;;;9.43;100.00;97977.16;5097612;28;20040;-59
2023/12/11 09:25:07;;;;;;;0.20;0.20;;;;;;;9.52;100.00;97982.78;5094568;28;20380;-60
2023/12/11 09:27:34;;;;;;;0.25;0.25;;;;;;;9.54;100.00;97986.81;5091073;28;20372;-59
2023/12/11 09:30:01;;;;;;;0.25;0.25;;;;;;;9.66;99.21;97990.03;5092895;28;20087;-60
2023/12/11 09:32:29;;;;;;;0.20;0.20;;;;;;;9.84;97.52;97983.34;5091944;28;20063;-60
2023/12/11 09:34:56;;;;;;;0.20;0.20;;;;;;;9.92;96.94;97993.50;5092441;28;20051;-59
2023/12/11 09:37:24;;;;;;;0.30;0.30;;;;;;;10.00;96.96;97989.50;5091232;28;20857;-59
2023/12/11 09:39:54;;;;;;;0.17;0.17;;;;;;;10.06;95.55;97993.78;5094887;28;20663;-59
2023/12/11 09:42:21;;;;;;;0.20;0.20;;;;;;;10.08;95.22;98001.53;5092125;28;20424;-59
2023/12/11 09:44:49;;;;;;;0.20;0.20;;;;;;;10.01;94.66;97992.97;5084716;28;20048;-59
2023/12/11 09:47:17;;;;;;;0.20;0.20;;;;;;;10.05;94.84;98007.44;5092571;28;20405;-59
2023/12/11 09:49:45;;;;;;;0.20;0.20;;;;;;;10.10;94.03;98013.56;5091575;28;20055;-59
2023/12/11 09:52:13;;;;;;;0.15;0.15;;;;;;;10.06;93.52;98006.34;5090357;28;20388;-59
2023/12/11 09:54:41;;;;;;;0.20;0.20;;;;;;;10.14;92.42;98009.28;5093594;28;20065;-59
2023/12/11 09:57:10;;;;;;;0.20;0.20;;;;;;;10.19;93.33;98023.75;5096134;28;20040;-59
2023/12/11 09:59:38;;;;;;;0.30;0.30;;;;;;;10.18;93.12;98025.63;5091908;28;20160;-59
2023/12/11 10:02:05;;;;;;;0.20;0.20;;;;;;;10.24;94.02;98021.06;5092706;28;20798;-60
2023/12/11 10:04:32;;;;;;;0.20;0.20;;;;;;;10.28;94.10;98022.16;5094861;27;20040;-59
2023/12/11 10:07:00;;;;;;;0.20;0.20;;;;;;;10.31;92.82;98024.31;5096063;28;20058;-59
2023/12/11 10:09:30;;;;;;;0.20;0.20;;;;;;;10.24;92.95;98027.22;5090245;28;20055;-60
2023/12/11 10:12:02;;;;;;;0.20;0.20;;;;;;;10.33;91.66;98035.53;5092319;28;20134;-60
2023/12/11 10:14:30;;;;;;;0.20;0.20;;;;;;;10.33;92.80;98035.53;5094691;27;20047;-60
2023/12/11 10:16:57;;;;;;;0.20;0.20;;;;;;;10.30;93.24;98028.84;5087572;28;20075;-59
2023/12/11 10:19:31;;;;;;;0.20;0.20;;;;;;;10.33;92.89;98036.38;5082402;28;20047;-59
2023/12/11 10:22:00;;;;;;;0.20;0.20;;;;;;;10.42;92.35;98043.84;5093651;28;20050;-60
2023/12/11 10:24:27;;;;;;;0.20;0.20;;;;;;;10.40;92.24;98041.44;5093577;27;20056;-60
2023/12/11 10:26:55;;;;;;;0.10;0.10;;;;;;;10.48;92.12;98043.59;5094054;28;20474;-60
2023/12/11 10:29:27;;;;;;;0.20;0.20;;;;;;;10.47;92.08;98030.44;5096668;28;20054;-60
2023/12/11 10:32:01;;;;;;;0.20;0.20;;;;;;;10.43;89.60;98037.41;5092588;28;20048;-59
2023/12/11 10:34:42;;;;;;;0.20;0.20;;;;;;;10.52;88.76;98039.28;5093089;28;20471;-60
2023/12/11 10:37:11;;;;;;;0.20;0.20;;;;;;;10.55;86.99;98043.28;5094345;28;20047;-60
2023/12/11 10:39:38;;;;;;;0.25;0.25;;;;;;;10.53;86.76;98032.84;5087752;27;20482;-59
2023/12/11 10:42:14;;;;;;;0.20;0.20;;;;;;;10.47;87.93;98035.81;5090394;27;20043;-58
2023/12/11 10:44:42;;;;;;;0.17;0.17;;;;;;;10.50;86.12;98044.09;5090736;27;20040;-60
2023/12/11 10:47:09;;;;;;;0.20;0.20;;;;;;;10.54;85.44;98033.66;5092697;28;20130;-60
2023/12/11 10:49:37;;;;;;;0.10;0.10;;;;;;;10.46;86.85;98039.53;5099000;27;20059;-60
2023/12/11 10:52:04;;;;;;;0.20;0.20;;;;;;;10.52;86.05;98044.63;5089630;28;20067;-60
2023/12/11 10:54:32;;;;;;;0.20;0.20;;;;;;;10.43;87.32;98048.91;5090874;28;20214;-59
2023/12/11 10:57:01;;;;;;;0.20;0.20;;;;;;;10.41;88.74;98048.41;5098745;27;20127;-59
2023/12/11 10:59:28;;;;;;;0.20;0.20;;;;;;;10.47;88.52;98041.97;5098998;27;20580;-59
2023/12/11 11:01:57;;;;;;;0.20;0.20;;;;;;;10.36;89.03;98051.09;5093471;28;20460;-59
2023/12/11 11:04:24;;;;;;;0.22;0.22;;;;;;;10.43;89.34;98048.91;5098173;28;20043;-59
2023/12/11 11:06:58;;;;;;;0.20;0.20;;;;;;;10.42;89.12;98058.03;5107468;27;20047;-60
2023/12/11 11:09:29;;;;;;;0.20;0.20;;;;;;;10.48;88.71;98056.97;5096755;28;21829;-57
2023/12/11 11:12:00;;;;;;;0.13;0.13;;;;;;;10.46;88.69;98051.06;5098393;28;20129;-59
2023/12/11 11:14:39;;;;;;;0.20;0.20;;;;;;;10.54;89.47;98058.56;5091834;28;20153;-59
2023/12/11 11:17:09;;;;;;;0.20;0.20;;;;;;;10.54;88.46;98063.91;5090065;28;20044;-59
2023/12/11 11:19:37;;;;;;;0.20;0.20;;;;;;;10.50;88.88;98073.56;5088177;28;20042;-59
2023/12/11 11:22:20;;;;;;;0.20;0.20;;;;;;;10.39;89.06;98077.34;5091802;28;20766;-59
2023/12/11 11:24:49;;;;;;;0.10;0.10;;;;;;;10.36;86.75;98076.00;5092378;28;20688;-59
2023/12/11 11:27:38;;;;;;;0.17;0.17;;;;;;;10.45;86.27;98084.28;5091925;28;20055;-59
2023/12/11 11:30:08;;;;;;;0.20;0.20;;;;;;;10.48;84.75;98080.25;5088954;28;20160;-59
2023/12/11 11:32:57;;;;;;;0.20;0.20;;;;;;;10.47;84.50;98090.19;5085602;28;20131;-59
2023/12/11 11:35:49;;;;;;;0.20;0.20;;;;;;;10.42;84.51;98087.50;5096246;28;20136;-59
2023/12/11 11:38:18;;;;;;;0.20;0.20;;;;;;;10.41;85.77;98091.25;5108946;27;20044;-59